Time;durP1;ratioP1;P1;durP2;ratioP2;P2;SDS_P1;SDS_P2;PMS_P1;PMS_P2;Temp;Humidity;BMP_temperature;BMP_pressure;BME280_temperature;BME280_humidity;BME280_pressure;Samples;Min_cycle;Max_cycle;Signal;HPM_P1;HPM_P2
2023/04/23 00:00:06;;;;;;;7.13;2.38;;;;;;;;;;4922190;29;20048;-83
2023/04/23 00:02:38;;;;;;;3.83;2.45;;;;;;;;;;4904487;29;20121;-84
2023/04/23 00:05:05;;;;;;;6.63;2.25;;;;;;;;;;4902977;29;20048;-84
2023/04/23 00:07:32;;;;;;;5.03;2.20;;;;;;;;;;4902658;29;20074;-85
2023/04/23 00:10:07;;;;;;;11.98;2.38;;;;;;;;;;4917646;29;20090;-83
2023/04/23 00:12:34;;;;;;;9.25;2.33;;;;;;;;;;4918291;29;20047;-82
2023/04/23 00:15:00;;;;;;;7.05;2.42;;;;;;;;;;4902157;29;20513;-84
2023/04/23 00:17:27;;;;;;;3.30;1.92;;;;;;;;;;4919271;29;20054;-84
2023/04/23 00:19:54;;;;;;;6.68;2.05;;;;;;;;;;4933187;29;20052;-82
2023/04/23 00:22:20;;;;;;;10.50;2.50;;;;;;;;;;4901684;29;20058;-84
2023/04/23 00:24:47;;;;;;;4.70;2.50;;;;;;;;;;4932604;29;20112;-84
2023/04/23 00:27:14;;;;;;;4.10;2.08;;;;;;;;;;4934285;29;20048;-81
2023/04/23 00:29:42;;;;;;;4.88;2.38;;;;;;;;;;4899306;29;20346;-85
2023/04/23 00:32:13;;;;;;;4.53;1.92;;;;;;;;;;4899222;29;20072;-83
2023/04/23 00:34:39;;;;;;;5.18;2.30;;;;;;;;;;4884409;29;20048;-82
2023/04/23 00:37:07;;;;;;;4.22;2.25;;;;;;;;;;4892532;29;20060;-82
2023/04/23 00:39:34;;;;;;;3.58;2.00;;;;;;;;;;4900405;29;20052;-82
2023/04/23 00:42:10;;;;;;;6.75;1.90;;;;;;;;;;4914242;29;20052;-85
2023/04/23 00:44:36;;;;;;;;;;;;;;;;;;4898061;29;20054;-84
2023/04/23 00:47:04;;;;;;;5.00;2.50;;;;;;;;;;4897871;29;19950;-85
2023/04/23 00:49:31;;;;;;;6.00;2.22;;;;;;;;;;4865597;29;20056;-83
2023/04/23 00:51:59;;;;;;;6.07;2.08;;;;;;;;;;4900146;29;20056;-84
2023/04/23 00:54:26;;;;;;;4.53;1.85;;;;;;;;;;4898560;29;20108;-83
2023/04/23 00:56:54;;;;;;;6.55;1.90;;;;;;;;;;4903682;29;20490;-82
2023/04/23 00:59:21;;;;;;;6.68;2.13;;;;;;;;;;4930245;29;20111;-82
2023/04/23 01:01:47;;;;;;;5.85;1.95;;;;;;;;;;4882215;29;20508;-82
2023/04/23 01:04:16;;;;;;;7.38;2.28;;;;;;;;;;4894034;29;20123;-81
2023/04/23 01:06:45;;;;;;;3.47;1.90;;;;;;;;;;4912990;29;20044;-82
2023/04/23 01:09:12;;;;;;;4.32;1.92;;;;;;;;;;4899496;29;20055;-79
2023/04/23 01:11:41;;;;;;;5.85;1.98;;;;;;;;;;4919635;29;20108;-82
2023/04/23 01:14:08;;;;;;;3.97;1.98;;;;;;;;;;4879126;29;20154;-82
2023/04/23 01:16:37;;;;;;;4.55;2.00;;;;;;;;;;4881214;29;20037;-82
2023/04/23 01:19:07;;;;;;;4.72;2.47;;;;;;;;;;4879465;29;20049;-82
2023/04/23 01:21:34;;;;;;;4.32;2.15;;;;;;;;;;4881062;29;20071;-83
2023/04/23 01:24:04;;;;;;;4.00;2.00;;;;;;;;;;4905625;29;20039;-82
2023/04/23 01:26:31;;;;;;;4.95;1.90;;;;;;;;;;4902340;29;20544;-85
2023/04/23 01:28:58;;;;;;;5.18;2.05;;;;;;;;;;4898942;29;20061;-85
2023/04/23 01:31:27;;;;;;;5.57;2.20;;;;;;;;;;4889789;29;20041;-83
2023/04/23 01:33:54;;;;;;;5.03;1.98;;;;;;;;;;4887774;29;20044;-83
2023/04/23 01:36:22;;;;;;;5.03;2.10;;;;;;;;;;4907685;29;20525;-82
2023/04/23 01:38:50;;;;;;;3.95;2.10;;;;;;;;;;4913742;29;20048;-82
2023/04/23 01:41:18;;;;;;;2.22;1.67;;;;;;;;;;4895458;29;20072;-82
2023/04/23 01:43:45;;;;;;;5.85;2.33;;;;;;;;;;4895162;29;20128;-82
2023/04/23 01:46:12;;;;;;;5.28;1.80;;;;;;;;;;4880234;29;20847;-84
2023/04/23 01:48:39;;;;;;;4.43;2.13;;;;;;;;;;4894155;29;20458;-83
2023/04/23 01:51:06;;;;;;;3.55;1.90;;;;;;;;;;4929388;29;20628;-85
2023/04/23 01:53:33;;;;;;;3.38;2.13;;;;;;;;;;4896900;29;20112;-84
2023/04/23 01:56:01;;;;;;;3.65;1.98;;;;;;;;;;4909169;29;20055;-84
2023/04/23 01:58:27;;;;;;;5.30;2.22;;;;;;;;;;4938253;28;20044;-83
2023/04/23 02:00:55;;;;;;;4.93;2.42;;;;;;;;;;4884478;29;20473;-83
2023/04/23 02:03:22;;;;;;;4.35;2.20;;;;;;;;;;4884716;29;20052;-82
2023/04/23 02:05:49;;;;;;;4.57;2.30;;;;;;;;;;4921066;29;20941;-83
2023/04/23 02:08:16;;;;;;;4.40;2.20;;;;;;;;;;4885980;29;20128;-82
2023/04/23 02:10:42;;;;;;;3.55;2.00;;;;;;;;;;4885622;29;20091;-85
2023/04/23 02:13:11;;;;;;;5.60;2.38;;;;;;;;;;4921541;29;20422;-84
2023/04/23 02:15:39;;;;;;;7.35;2.50;;;;;;;;;;4932484;29;20053;-84
2023/04/23 02:18:07;;;;;;;5.25;2.63;;;;;;;;;;4898203;29;20055;-84
2023/04/23 02:20:37;;;;;;;4.70;2.75;;;;;;;;;;4881489;29;20044;-83
2023/04/23 02:23:04;;;;;;;7.05;2.90;;;;;;;;;;4913783;29;20075;-84
2023/04/23 02:25:32;;;;;;;7.57;3.22;;;;;;;;;;4880343;29;20044;-84
2023/04/23 02:28:00;;;;;;;5.25;2.92;;;;;;;;;;4912317;29;20060;-83
2023/04/23 02:30:27;;;;;;;4.38;2.70;;;;;;;;;;4896539;29;20045;-84
2023/04/23 02:32:54;;;;;;;6.03;2.70;;;;;;;;;;4895905;29;20181;-82
2023/04/23 02:35:22;;;;;;;7.93;3.03;;;;;;;;;;4930040;29;20127;-82
2023/04/23 02:37:49;;;;;;;6.35;3.00;;;;;;;;;;4916196;29;20032;-83
2023/04/23 02:40:16;;;;;;;6.70;3.20;;;;;;;;;;4915905;29;20059;-83
2023/04/23 02:42:43;;;;;;;5.80;3.40;;;;;;;;;;4929487;29;20461;-82
2023/04/23 02:45:10;;;;;;;5.50;3.15;;;;;;;;;;4899188;29;20040;-82
2023/04/23 02:47:36;;;;;;;7.15;3.50;;;;;;;;;;4930888;29;20087;-83
2023/04/23 02:50:05;;;;;;;7.00;3.00;;;;;;;;;;4919336;29;20052;-83
2023/04/23 02:52:34;;;;;;;6.22;3.05;;;;;;;;;;4923445;29;20072;-82
2023/04/23 02:55:02;;;;;;;5.80;3.45;;;;;;;;;;4932482;29;20060;-83
2023/04/23 02:57:30;;;;;;;6.70;3.47;;;;;;;;;;4897876;29;20081;-82
2023/04/23 02:59:56;;;;;;;4.75;3.50;;;;;;;;;;4912074;29;20052;-84
2023/04/23 03:02:31;;;;;;;7.03;3.15;;;;;;;;;;4901224;29;20044;-82
2023/04/23 03:04:59;;;;;;;7.13;3.25;;;;;;;;;;4918886;29;20044;-83
2023/04/23 03:07:25;;;;;;;6.13;2.92;;;;;;;;;;4918799;29;20059;-84
2023/04/23 03:09:52;;;;;;;7.90;3.20;;;;;;;;;;4904174;29;20076;-83
2023/04/23 03:12:19;;;;;;;8.05;3.10;;;;;;;;;;4902535;29;20041;-81
2023/04/23 03:14:45;;;;;;;7.65;3.03;;;;;;;;;;4900364;29;20061;-83
2023/04/23 03:17:12;;;;;;;5.50;2.60;;;;;;;;;;4869139;29;20049;-84
2023/04/23 03:19:39;;;;;;;4.80;3.10;;;;;;;;;;4931335;29;20045;-81
2023/04/23 03:22:06;;;;;;;7.25;3.35;;;;;;;;;;4884488;29;20041;-85
2023/04/23 03:24:33;;;;;;;7.68;3.08;;;;;;;;;;4916128;29;20048;-82
2023/04/23 03:27:00;;;;;;;7.38;3.10;;;;;;;;;;4901460;29;20059;-85
2023/04/23 03:29:27;;;;;;;5.68;2.90;;;;;;;;;;4904562;29;20056;-82
2023/04/23 03:31:54;;;;;;;3.97;2.63;;;;;;;;;;4904751;29;20076;-84
2023/04/23 03:34:20;;;;;;;5.65;2.90;;;;;;;;;;4898506;29;20052;-84
2023/04/23 03:36:48;;;;;;;8.70;3.10;;;;;;;;;;4902082;29;20087;-79
2023/04/23 03:39:16;;;;;;;7.18;3.22;;;;;;;;;;4891058;29;20041;-83
2023/04/23 03:41:48;;;;;;;5.70;3.17;;;;;;;;;;4921967;29;20045;-83
2023/04/23 03:44:25;;;;;;;5.68;3.35;;;;;;;;;;4886592;29;20111;-83
2023/04/23 03:46:52;;;;;;;8.60;3.17;;;;;;;;;;4898304;29;20136;-84
2023/04/23 03:49:19;;;;;;;5.38;3.05;;;;;;;;;;4884207;29;20073;-85
2023/04/23 03:51:46;;;;;;;5.75;2.70;;;;;;;;;;4883010;29;20044;-82
2023/04/23 03:54:13;;;;;;;5.88;3.25;;;;;;;;;;4916051;29;20044;-84
2023/04/23 03:57:15;;;;;;;5.20;2.60;;;;;;;;;;4919133;28;20041;-83
2023/04/23 04:00:01;;;;;;;6.43;3.03;;;;;;;;;;4918760;29;20055;-83
2023/04/23 04:02:38;;;;;;;5.82;3.20;;;;;;;;;;4916921;29;20056;-82
2023/04/23 04:05:06;;;;;;;5.78;3.00;;;;;;;;;;4932990;29;20051;-85
2023/04/23 04:07:34;;;;;;;5.18;2.83;;;;;;;;;;4949723;28;20055;-81
2023/04/23 04:10:03;;;;;;;7.72;3.13;;;;;;;;;;4918960;29;20059;-83
2023/04/23 04:12:29;;;;;;;7.20;2.72;;;;;;;;;;4921183;29;20044;-83
2023/04/23 04:14:56;;;;;;;8.98;3.13;;;;;;;;;;4942247;29;20060;-86
2023/04/23 04:17:22;;;;;;;4.85;2.90;;;;;;;;;;4917398;29;20147;-83
2023/04/23 04:19:49;;;;;;;4.93;2.90;;;;;;;;;;4916958;29;20051;-86
2023/04/23 04:22:16;;;;;;;5.32;2.65;;;;;;;;;;4916212;29;20036;-84
2023/04/23 04:24:43;;;;;;;5.93;2.72;;;;;;;;;;4924082;29;20569;-84
2023/04/23 04:27:10;;;;;;;5.80;2.92;;;;;;;;;;4918624;29;20044;-85
2023/04/23 04:29:39;;;;;;;5.38;2.55;;;;;;;;;;4926214;29;20116;-84
2023/04/23 04:32:16;;;;;;;6.57;2.92;;;;;;;;;;4903919;29;20047;-85
2023/04/23 04:34:43;;;;;;;6.50;2.60;;;;;;;;;;4886050;29;20044;-84
2023/04/23 04:37:10;;;;;;;6.00;2.65;;;;;;;;;;4893762;29;20047;-83
2023/04/23 04:39:37;;;;;;;4.50;2.65;;;;;;;;;;4896055;29;22651;-83
2023/04/23 04:42:05;;;;;;;7.10;2.53;;;;;;;;;;4895826;29;20088;-83
2023/04/23 04:44:32;;;;;;;4.07;2.20;;;;;;;;;;4879434;29;20045;-85
2023/04/23 04:46:58;;;;;;;3.67;2.40;;;;;;;;;;4912663;29;20052;-83
2023/04/23 04:49:25;;;;;;;4.32;2.20;;;;;;;;;;4884384;29;20052;-84
2023/04/23 04:51:53;;;;;;;5.90;2.60;;;;;;;;;;4897248;29;20542;-84
2023/04/23 04:54:20;;;;;;;6.47;2.13;;;;;;;;;;4912586;29;20048;-86
2023/04/23 04:56:47;;;;;;;6.55;2.53;;;;;;;;;;4914256;29;20119;-84
2023/04/23 04:59:13;;;;;;;5.15;1.92;;;;;;;;;;4913787;29;20120;-83
2023/04/23 05:01:40;;;;;;;6.68;2.13;;;;;;;;;;4947034;28;20072;-81
2023/04/23 05:04:07;;;;;;;7.15;2.15;;;;;;;;;;4942796;28;20444;-84
2023/04/23 05:06:34;;;;;;;4.22;2.47;;;;;;;;;;4920624;29;20074;-82
2023/04/23 05:09:01;;;;;;;5.18;2.22;;;;;;;;;;4931841;29;20052;-84
2023/04/23 05:11:27;;;;;;;5.35;2.33;;;;;;;;;;4899436;29;20546;-83
2023/04/23 05:13:55;;;;;;;5.03;2.42;;;;;;;;;;4913274;29;20082;-83
2023/04/23 05:16:23;;;;;;;9.93;2.75;;;;;;;;;;4913874;29;20079;-82
2023/04/23 05:18:50;;;;;;;4.97;2.35;;;;;;;;;;4914155;29;20621;-83
2023/04/23 05:21:18;;;;;;;5.57;2.20;;;;;;;;;;4928813;28;20107;-81
2023/04/23 05:23:45;;;;;;;8.70;2.30;;;;;;;;;;4888956;29;20572;-83
2023/04/23 05:26:11;;;;;;;6.20;2.20;;;;;;;;;;4896847;29;20135;-83
2023/04/23 05:28:38;;;;;;;4.88;2.38;;;;;;;;;;4903761;29;20047;-80
2023/04/23 05:31:04;;;;;;;4.35;2.47;;;;;;;;;;4924205;29;20096;-82
2023/04/23 05:33:31;;;;;;;7.57;2.58;;;;;;;;;;4900616;29;20047;-82
2023/04/23 05:36:12;;;;;;;4.30;2.20;;;;;;;;;;4913813;29;20051;-75
2023/04/23 05:38:38;;;;;;;4.60;2.45;;;;;;;;;;4918161;29;20056;-85
2023/04/23 05:41:05;;;;;;;6.90;2.42;;;;;;;;;;4933086;28;20488;-83
2023/04/23 05:43:32;;;;;;;7.25;2.10;;;;;;;;;;4916210;29;20442;-85
2023/04/23 05:46:03;;;;;;;5.63;2.33;;;;;;;;;;4931176;29;20042;-87
2023/04/23 05:48:32;;;;;;;7.22;2.03;;;;;;;;;;4930662;29;20096;-85
2023/04/23 05:50:59;;;;;;;2.92;2.10;;;;;;;;;;4909729;29;20051;-85
2023/04/23 05:53:35;;;;;;;5.47;2.30;;;;;;;;;;4897563;29;20521;-86
2023/04/23 05:56:02;;;;;;;7.47;2.90;;;;;;;;;;4915017;29;20048;-87
2023/04/23 05:58:40;;;;;;;5.25;2.72;;;;;;;;;;4905677;29;20054;-87
2023/04/23 06:01:07;;;;;;;6.60;2.05;;;;;;;;;;4894189;29;20049;-86
2023/04/23 06:03:35;;;;;;;5.75;2.88;;;;;;;;;;4895131;29;20157;-86
2023/04/23 06:06:02;;;;;;;7.47;2.67;;;;;;;;;;4904079;29;20048;-84
2023/04/23 06:08:29;;;;;;;6.82;2.60;;;;;;;;;;4918435;29;20458;-85
2023/04/23 06:10:57;;;;;;;6.65;3.08;;;;;;;;;;4896960;29;20044;-84
2023/04/23 06:13:25;;;;;;;7.82;3.45;;;;;;;;;;4895614;29;20044;-85
2023/04/23 06:15:54;;;;;;;5.15;3.00;;;;;;;;;;4894889;29;20053;-85
2023/04/23 06:18:26;;;;;;;7.47;3.15;;;;;;;;;;4879093;29;20140;-85
2023/04/23 06:20:55;;;;;;;6.22;2.88;;;;;;;;;;4888303;29;20127;-86
2023/04/23 06:23:22;;;;;;;7.20;3.25;;;;;;;;;;4928686;29;20462;-85
2023/04/23 06:25:49;;;;;;;8.30;4.18;;;;;;;;;;4898293;29;21037;-85
2023/04/23 06:28:15;;;;;;;7.10;3.80;;;;;;;;;;4892031;29;20136;-86
2023/04/23 06:31:01;;;;;;;7.28;4.07;;;;;;;;;;4892491;29;20044;-85
2023/04/23 06:33:28;;;;;;;10.65;3.97;;;;;;;;;;4928134;29;20127;-86
2023/04/23 06:35:55;;;;;;;8.95;3.65;;;;;;;;;;4898024;29;20071;-86
2023/04/23 06:38:23;;;;;;;6.13;3.80;;;;;;;;;;4931963;29;20063;-85
2023/04/23 06:40:50;;;;;;;7.05;3.53;;;;;;;;;;4938365;28;20137;-86
2023/04/23 06:43:17;;;;;;;6.18;3.38;;;;;;;;;;4909580;29;20114;-85
2023/04/23 06:46:04;;;;;;;7.55;3.28;;;;;;;;;;4891234;29;20518;-84
2023/04/23 06:48:32;;;;;;;6.90;3.70;;;;;;;;;;4917617;29;20192;-85
2023/04/23 06:50:58;;;;;;;8.55;3.35;;;;;;;;;;4917838;29;20040;-84
2023/04/23 06:53:25;;;;;;;6.38;3.15;;;;;;;;;;4914950;29;20108;-83
2023/04/23 06:55:55;;;;;;;6.20;2.95;;;;;;;;;;4913443;29;20040;-85
2023/04/23 06:58:26;;;;;;;5.25;2.95;;;;;;;;;;4933800;28;20055;-86
2023/04/23 07:00:52;;;;;;;3.80;2.13;;;;;;;;;;4917120;29;21251;-85
2023/04/23 07:03:25;;;;;;;5.20;2.75;;;;;;;;;;4900245;29;20049;-87
2023/04/23 07:05:52;;;;;;;5.53;2.60;;;;;;;;;;4912836;29;20052;-84
2023/04/23 07:08:21;;;;;;;6.25;2.30;;;;;;;;;;4901742;29;20040;-83
2023/04/23 07:10:49;;;;;;;4.75;2.20;;;;;;;;;;4903615;29;20140;-86
2023/04/23 07:13:18;;;;;;;3.80;1.88;;;;;;;;;;4895098;29;20122;-89
2023/04/23 07:15:47;;;;;;;5.78;2.08;;;;;;;;;;4928897;29;20051;-86
2023/04/23 07:18:14;;;;;;;2.72;1.75;;;;;;;;;;4887684;29;20148;-85
2023/04/23 07:20:42;;;;;;;3.55;1.80;;;;;;;;;;4914835;29;20048;-85
2023/04/23 07:23:10;;;;;;;1.85;1.33;;;;;;;;;;4913926;29;20052;-84
2023/04/23 07:25:36;;;;;;;2.25;1.50;;;;;;;;;;4903939;29;20067;-85
2023/04/23 07:28:04;;;;;;;3.28;1.50;;;;;;;;;;4912479;29;20088;-84
2023/04/23 07:30:31;;;;;;;4.35;1.70;;;;;;;;;;4883068;29;20879;-83
2023/04/23 07:32:57;;;;;;;2.33;1.63;;;;;;;;;;4904408;29;20085;-84
2023/04/23 07:35:25;;;;;;;2.33;1.50;;;;;;;;;;4876362;29;20751;-82
2023/04/23 07:37:54;;;;;;;2.83;1.30;;;;;;;;;;4877553;29;20136;-84
2023/04/23 07:40:21;;;;;;;2.30;1.50;;;;;;;;;;4936457;29;20036;-83
2023/04/23 07:42:49;;;;;;;3.35;1.65;;;;;;;;;;4901129;29;20053;-86
2023/04/23 07:45:16;;;;;;;2.40;1.50;;;;;;;;;;4897911;29;20063;-86
2023/04/23 07:47:44;;;;;;;3.95;1.40;;;;;;;;;;4914113;29;20052;-86
2023/04/23 07:50:11;;;;;;;3.83;1.40;;;;;;;;;;4925987;29;20055;-84
2023/04/23 07:52:40;;;;;;;1.95;1.20;;;;;;;;;;4906688;29;20751;-86
2023/04/23 07:55:08;;;;;;;5.28;1.30;;;;;;;;;;4903111;29;20048;-87
2023/04/23 07:57:35;;;;;;;1.70;1.23;;;;;;;;;;4902685;29;20075;-87
2023/04/23 08:00:03;;;;;;;1.67;1.00;;;;;;;;;;4890950;29;20055;-88
2023/04/23 08:02:37;;;;;;;2.97;1.10;;;;;;;;;;4899083;29;20048;-85
2023/04/23 08:05:07;;;;;;;2.75;1.00;;;;;;;;;;4904700;29;20056;-86
2023/04/23 08:07:35;;;;;;;1.15;0.80;;;;;;;;;;4893211;29;20501;-85
2023/04/23 08:10:04;;;;;;;3.40;0.90;;;;;;;;;;4910996;29;20066;-88
2023/04/23 08:12:34;;;;;;;2.42;1.05;;;;;;;;;;4910015;29;20056;-82
2023/04/23 08:15:01;;;;;;;1.90;1.05;;;;;;;;;;4887492;29;20516;-82
2023/04/23 08:17:37;;;;;;;1.55;1.00;;;;;;;;;;4922189;28;20048;-84
2023/04/23 08:20:07;;;;;;;3.08;1.38;;;;;;;;;;4899944;29;20144;-83
2023/04/23 08:22:36;;;;;;;1.77;1.00;;;;;;;;;;4888186;29;20158;-82
2023/04/23 08:25:03;;;;;;;1.98;1.08;;;;;;;;;;4893187;29;20052;-84
2023/04/23 08:27:30;;;;;;;2.38;1.00;;;;;;;;;;4898481;29;20044;-85
2023/04/23 08:29:57;;;;;;;2.60;1.20;;;;;;;;;;4875145;29;20064;-84
2023/04/23 08:32:23;;;;;;;3.50;1.08;;;;;;;;;;4907592;29;20049;-85
2023/04/23 08:34:52;;;;;;;1.42;1.20;;;;;;;;;;4904612;29;20121;-86
2023/04/23 08:37:18;;;;;;;5.68;1.23;;;;;;;;;;4930569;29;20080;-86
2023/04/23 08:39:56;;;;;;;2.53;1.20;;;;;;;;;;4900700;29;20056;-84
2023/04/23 08:42:25;;;;;;;7.15;1.30;;;;;;;;;;4904099;29;20044;-80
2023/04/23 08:44:53;;;;;;;1.60;1.10;;;;;;;;;;4920403;29;20127;-83
2023/04/23 08:47:22;;;;;;;1.20;0.90;;;;;;;;;;4913175;29;20040;-84
2023/04/23 08:49:52;;;;;;;2.58;1.10;;;;;;;;;;4877399;29;20053;-83
2023/04/23 08:52:22;;;;;;;3.42;1.05;;;;;;;;;;4895421;29;20143;-83
2023/04/23 08:54:51;;;;;;;1.90;1.10;;;;;;;;;;4892322;29;20056;-81
2023/04/23 08:57:18;;;;;;;2.30;1.10;;;;;;;;;;4921016;29;20477;-83
2023/04/23 08:59:46;;;;;;;3.20;1.00;;;;;;;;;;4908320;29;20068;-84
2023/04/23 09:02:14;;;;;;;1.77;1.00;;;;;;;;;;4911575;29;20052;-85
2023/04/23 09:04:43;;;;;;;1.83;0.90;;;;;;;;;;4887948;29;20063;-85
2023/04/23 09:07:11;;;;;;;1.52;0.82;;;;;;;;;;4907686;29;20048;-84
2023/04/23 09:09:39;;;;;;;3.50;1.00;;;;;;;;;;4904057;29;20248;-82
2023/04/23 09:12:07;;;;;;;1.77;1.05;;;;;;;;;;4909754;29;20059;-82
2023/04/23 09:14:34;;;;;;;1.85;1.08;;;;;;;;;;4906999;29;20067;-84
2023/04/23 09:17:02;;;;;;;1.50;1.00;;;;;;;;;;4909933;29;20131;-83
2023/04/23 09:19:29;;;;;;;2.38;0.95;;;;;;;;;;4881931;29;20616;-82
2023/04/23 09:22:01;;;;;;;;;;;;;;;;;;4999755;27;2360088;-80
2023/04/23 09:24:33;;;;;;;1.15;0.80;;;;;;;;;;5072500;28;20182;-81
2023/04/23 09:26:59;;;;;;;2.95;0.63;;;;;;;;;;5044174;28;20060;-80
2023/04/23 09:29:27;;;;;;;3.42;1.20;;;;;;;;;;5045429;28;20075;-80
2023/04/23 09:31:55;;;;;;;3.38;1.20;;;;;;;;;;5053671;28;20056;-80
2023/04/23 09:34:22;;;;;;;1.88;1.10;;;;;;;;;;5044982;28;20429;-79
2023/04/23 09:36:50;;;;;;;1.60;0.85;;;;;;;;;;5051906;28;20135;-81
2023/04/23 09:39:18;;;;;;;1.60;0.80;;;;;;;;;;5044320;28;20688;-81
2023/04/23 09:41:47;;;;;;;1.15;0.90;;;;;;;;;;5043128;28;20045;-81
2023/04/23 09:44:18;;;;;;;2.83;1.20;;;;;;;;;;5054208;28;20140;-80
2023/04/23 09:46:45;;;;;;;1.80;1.10;;;;;;;;;;5063516;28;20075;-80
2023/04/23 09:49:12;;;;;;;2.30;1.13;;;;;;;;;;5058553;28;20056;-79
2023/04/23 09:51:40;;;;;;;1.65;1.13;;;;;;;;;;5065113;28;20055;-77
2023/04/23 09:54:10;;;;;;;3.10;1.45;;;;;;;;;;5051296;28;20049;-79
2023/04/23 09:56:38;;;;;;;2.03;1.27;;;;;;;;;;5046754;28;20049;-80
2023/04/23 09:59:20;;;;;;;1.63;1.13;;;;;;;;;;5048239;28;20045;-81
2023/04/23 10:02:03;;;;;;;2.63;1.27;;;;;;;;;;5053339;28;20056;-80
2023/04/23 10:04:29;;;;;;;3.83;1.45;;;;;;;;;;5064085;28;20175;-80
2023/04/23 10:06:58;;;;;;;3.25;1.52;;;;;;;;;;5069837;28;20048;-82
2023/04/23 10:09:44;;;;;;;2.60;1.38;;;;;;;;;;5063090;28;20049;-81
2023/04/23 10:12:12;;;;;;;1.73;1.30;;;;;;;;;;5055727;28;20060;-81
2023/04/23 10:14:59;;;;;;;2.47;1.33;;;;;;;;;;5073712;28;20084;-81
2023/04/23 10:17:27;;;;;;;3.40;1.58;;;;;;;;;;5046509;28;20037;-81
2023/04/23 10:19:54;;;;;;;1.73;1.10;;;;;;;;;;5081905;28;20042;-81
2023/04/23 10:22:21;;;;;;;2.55;1.50;;;;;;;;;;5033815;28;20041;-82
2023/04/23 10:24:51;;;;;;;2.20;1.27;;;;;;;;;;5048084;28;20072;-81
2023/04/23 10:27:20;;;;;;;2.15;1.20;;;;;;;;;;5063528;28;20464;-80
2023/04/23 10:29:50;;;;;;;3.45;1.40;;;;;;;;;;5050327;28;20056;-81
2023/04/23 10:32:18;;;;;;;2.13;1.20;;;;;;;;;;5055602;28;20052;-82
2023/04/23 10:34:45;;;;;;;2.83;1.48;;;;;;;;;;5019548;28;20030;-81
2023/04/23 10:37:14;;;;;;;2.33;1.50;;;;;;;;;;5037765;28;20556;-82
2023/04/23 10:39:42;;;;;;;3.38;1.65;;;;;;;;;;5052893;28;20033;-80
2023/04/23 10:42:12;;;;;;;2.70;1.40;;;;;;;;;;5050922;28;20068;-82
2023/04/23 10:44:41;;;;;;;6.35;1.20;;;;;;;;;;5047301;28;20048;-81
2023/04/23 10:47:11;;;;;;;2.60;1.40;;;;;;;;;;5033791;28;20072;-81
2023/04/23 10:49:38;;;;;;;36.35;2.10;;;;;;;;;;5066002;28;20464;-81
2023/04/23 10:52:08;;;;;;;7.53;1.50;;;;;;;;;;5051050;28;20052;-82
2023/04/23 10:54:47;;;;;;;3.40;1.00;;;;;;;;;;5045917;28;20045;-79
2023/04/23 10:57:14;;;;;;;1.45;1.00;;;;;;;;;;5052008;28;20040;-82
2023/04/23 10:59:52;;;;;;;1.27;0.90;;;;;;;;;;5070268;28;20049;-82
2023/04/23 11:02:19;;;;;;;3.05;0.95;;;;;;;;;;5045488;28;23018;-81
2023/04/23 11:04:53;;;;;;;1.83;0.90;;;;;;;;;;5039188;28;20351;-80
2023/04/23 11:07:24;;;;;;;1.92;0.90;;;;;;;;;;5032788;28;20053;-81
2023/04/23 11:09:52;;;;;;;15.07;1.92;;;;;;;;;;5051522;28;20069;-82
2023/04/23 11:12:19;;;;;;;2.42;1.25;;;;;;;;;;5054158;28;20113;-83
2023/04/23 11:14:47;;;;;;;1.65;1.10;;;;;;;;;;5037638;28;20064;-82
2023/04/23 11:17:15;;;;;;;5.75;1.23;;;;;;;;;;5051753;28;20143;-82
2023/04/23 11:20:01;;;;;;;2.05;1.05;;;;;;;;;;5039041;28;20558;-82
2023/04/23 11:22:57;;;;;;;2.45;1.05;;;;;;;;;;5040944;28;20049;-82
2023/04/23 11:25:25;;;;;;;1.70;1.00;;;;;;;;;;4999085;28;20054;-80
2023/04/23 11:27:53;;;;;;;1.63;1.05;;;;;;;;;;5048530;28;20056;-82
2023/04/23 11:30:25;;;;;;;2.97;1.10;;;;;;;;;;5040369;28;20053;-82
2023/04/23 11:32:53;;;;;;;2.75;1.10;;;;;;;;;;5032944;28;20060;-82
2023/04/23 11:35:22;;;;;;;1.83;1.10;;;;;;;;;;5042509;28;20059;-82
2023/04/23 11:37:48;;;;;;;1.25;1.10;;;;;;;;;;5036281;28;20108;-82
2023/04/23 11:40:18;;;;;;;17.05;1.40;;;;;;;;;;5045903;28;20105;-81
2023/04/23 11:42:46;;;;;;;9.77;1.25;;;;;;;;;;5055942;28;20545;-83
2023/04/23 11:45:16;;;;;;;0.90;0.70;;;;;;;;;;5034574;28;20084;-82
2023/04/23 11:47:43;;;;;;;1.38;0.80;;;;;;;;;;5033666;28;20037;-81
2023/04/23 11:50:09;;;;;;;8.48;1.13;;;;;;;;;;5034778;28;20041;-82
2023/04/23 11:52:36;;;;;;;2.15;0.90;;;;;;;;;;5028668;28;20041;-82
2023/04/23 11:55:06;;;;;;;1.42;0.90;;;;;;;;;;5029018;28;20455;-82
2023/04/23 11:57:37;;;;;;;3.42;1.02;;;;;;;;;;5036175;28;20041;-82
2023/04/23 12:00:32;;;;;;;2.28;0.90;;;;;;;;;;5028515;28;20169;-82
2023/04/23 12:03:00;;;;;;;19.00;2.35;;;;;;;;;;5030084;28;20071;-81
2023/04/23 12:05:26;;;;;;;1.67;1.15;;;;;;;;;;5028948;28;20071;-81
2023/04/23 12:07:54;;;;;;;68.80;2.70;;;;;;;;;;5015070;28;20056;-81
2023/04/23 12:10:20;;;;;;;3.22;0.90;;;;;;;;;;5030195;28;20674;-80
2023/04/23 12:12:48;;;;;;;1.55;1.20;;;;;;;;;;5030961;28;20049;-81
2023/04/23 12:15:15;;;;;;;1.33;1.02;;;;;;;;;;5035245;28;20056;-81
2023/04/23 12:17:42;;;;;;;7.15;1.10;;;;;;;;;;5028230;28;20056;-82
2023/04/23 12:20:11;;;;;;;1.70;1.00;;;;;;;;;;5048062;28;20611;-82
2023/04/23 12:22:39;;;;;;;1.13;0.93;;;;;;;;;;5028145;28;20819;-81
2023/04/23 12:25:07;;;;;;;2.05;1.10;;;;;;;;;;5032849;28;20681;-82
2023/04/23 12:27:39;;;;;;;1.40;0.98;;;;;;;;;;5034813;28;20559;-81
2023/04/23 12:30:06;;;;;;;4.53;1.15;;;;;;;;;;5028360;28;20136;-78
2023/04/23 12:32:33;;;;;;;5.55;1.35;;;;;;;;;;5038965;28;20127;-81
2023/04/23 12:35:04;;;;;;;2.78;1.20;;;;;;;;;;5050108;28;20318;-82
2023/04/23 12:37:35;;;;;;;1.40;1.00;;;;;;;;;;5037819;28;20041;-82
2023/04/23 12:40:05;;;;;;;1.60;1.10;;;;;;;;;;5029125;28;20128;-81
2023/04/23 12:42:33;;;;;;;1.73;1.15;;;;;;;;;;5031804;28;20099;-79
2023/04/23 12:45:06;;;;;;;1.45;0.90;;;;;;;;;;5026597;28;20045;-82
2023/04/23 12:47:34;;;;;;;5.57;1.40;;;;;;;;;;5026884;28;20144;-82
2023/04/23 12:50:02;;;;;;;12.13;1.40;;;;;;;;;;5031364;28;20037;-83
2023/04/23 12:52:30;;;;;;;1.50;1.17;;;;;;;;;;5028461;28;20080;-81
2023/04/23 12:54:59;;;;;;;2.13;1.15;;;;;;;;;;5027694;28;20061;-82
2023/04/23 12:57:26;;;;;;;2.38;1.20;;;;;;;;;;5039453;28;20036;-83
2023/04/23 12:59:53;;;;;;;1.95;0.93;;;;;;;;;;5037194;28;20105;-83
2023/04/23 13:02:20;;;;;;;0.90;0.80;;;;;;;;;;5036578;28;20072;-81
2023/04/23 13:04:47;;;;;;;1.58;0.98;;;;;;;;;;5035655;28;20443;-80
2023/04/23 13:07:14;;;;;;;1.20;0.88;;;;;;;;;;5049070;28;20064;-81
2023/04/23 13:09:40;;;;;;;1.38;1.10;;;;;;;;;;5041658;28;20139;-80
2023/04/23 13:12:08;;;;;;;3.40;1.17;;;;;;;;;;5027362;28;20045;-83
2023/04/23 13:14:34;;;;;;;15.90;1.38;;;;;;;;;;5046236;28;20094;-81
2023/04/23 13:17:01;;;;;;;1.55;1.10;;;;;;;;;;5047916;28;20065;-81
2023/04/23 13:19:28;;;;;;;7.43;1.13;;;;;;;;;;5041658;28;20045;-78
2023/04/23 13:21:54;;;;;;;7.15;1.17;;;;;;;;;;5028405;28;20053;-79
2023/04/23 13:24:21;;;;;;;5.38;1.25;;;;;;;;;;5029233;28;20446;-80
2023/04/23 13:26:47;;;;;;;3.45;1.00;;;;;;;;;;5047115;28;20069;-78
2023/04/23 13:29:14;;;;;;;1.30;1.00;;;;;;;;;;5042269;28;20141;-80
2023/04/23 13:31:41;;;;;;;2.72;1.25;;;;;;;;;;5059791;28;20048;-79
2023/04/23 13:34:07;;;;;;;1.45;1.02;;;;;;;;;;5075144;28;20213;-81
2023/04/23 13:36:34;;;;;;;8.27;1.15;;;;;;;;;;5045026;28;20044;-80
2023/04/23 13:39:01;;;;;;;2.78;1.10;;;;;;;;;;5047201;28;20076;-82
2023/04/23 13:41:28;;;;;;;2.97;0.80;;;;;;;;;;5040104;28;20057;-81
2023/04/23 13:43:54;;;;;;;1.70;0.95;;;;;;;;;;5042819;28;20779;-79
2023/04/23 13:46:21;;;;;;;1.35;0.90;;;;;;;;;;5034325;28;20342;-82
2023/04/23 13:48:48;;;;;;;1.30;0.95;;;;;;;;;;5041364;28;20064;-79
2023/04/23 13:51:14;;;;;;;1.77;1.00;;;;;;;;;;5044696;28;20044;-80
2023/04/23 13:53:59;;;;;;;1.50;0.87;;;;;;;;;;5032698;28;20170;-80
2023/04/23 13:56:26;;;;;;;1.92;0.90;;;;;;;;;;5026542;28;20044;-81
2023/04/23 13:59:00;;;;;;;1.33;0.80;;;;;;;;;;5026268;28;20521;-82
2023/04/23 14:01:45;;;;;;;1.90;1.00;;;;;;;;;;5023069;28;20099;-81
2023/04/23 14:04:13;;;;;;;1.23;0.93;;;;;;;;;;5045361;28;20049;-82
2023/04/23 14:06:41;;;;;;;31.42;2.28;;;;;;;;;;5050087;28;20045;-82
2023/04/23 14:09:08;;;;;;;1.65;1.00;;;;;;;;;;5034594;28;20050;-81
2023/04/23 14:11:38;;;;;;;2.70;0.77;;;;;;;;;;5037415;28;20049;-81
2023/04/23 14:14:06;;;;;;;1.30;0.90;;;;;;;;;;5038726;28;20118;-81
2023/04/23 14:16:33;;;;;;;1.45;0.90;;;;;;;;;;5030220;28;20045;-79
2023/04/23 14:19:00;;;;;;;1.88;0.90;;;;;;;;;;5041450;28;20046;-79
2023/04/23 14:21:26;;;;;;;2.00;1.02;;;;;;;;;;5032839;28;20057;-79
2023/04/23 14:23:59;;;;;;;1.23;0.90;;;;;;;;;;5038338;28;20055;-80
2023/04/23 14:26:30;;;;;;;9.27;1.33;;;;;;;;;;5025814;28;20404;-79
2023/04/23 14:29:21;;;;;;;2.60;0.73;;;;;;;;;;5030643;28;20064;-80
2023/04/23 14:31:49;;;;;;;1.10;0.80;;;;;;;;;;5038650;28;20048;-81
2023/04/23 14:34:17;;;;;;;1.80;0.82;;;;;;;;;;5048685;28;20049;-80
2023/04/23 14:36:45;;;;;;;3.22;0.85;;;;;;;;;;5033129;28;20041;-80
2023/04/23 14:39:12;;;;;;;1.63;0.85;;;;;;;;;;5034162;28;20305;-82
2023/04/23 14:41:39;;;;;;;0.93;0.70;;;;;;;;;;5028168;28;20128;-79
2023/04/23 14:44:06;;;;;;;1.40;0.82;;;;;;;;;;5081610;28;20041;-80
2023/04/23 14:46:33;;;;;;;2.55;0.60;;;;;;;;;;5032812;28;20045;-82
2023/04/23 14:48:59;;;;;;;4.00;0.98;;;;;;;;;;5043151;28;20128;-80
2023/04/23 14:51:26;;;;;;;4.15;1.17;;;;;;;;;;5033988;28;20057;-80